sensor_id;sensor_type;location;lat;lon;timestamp;P1;durP1;ratioP1;P2;durP2;ratioP2
12124;SDS011;6126;57.908;16.490;2023-08-01T00:00:07;5.80;;;1.75;;
12124;SDS011;6126;57.908;16.490;2023-08-01T00:02:33;3.03;;;1.85;;
12124;SDS011;6126;57.908;16.490;2023-08-01T00:04:59;3.22;;;1.67;;
12124;SDS011;6126;57.908;16.490;2023-08-01T00:07:28;2.47;;;1.52;;
12124;SDS011;6126;57.908;16.490;2023-08-01T00:09:54;1.98;;;1.50;;
12124;SDS011;6126;57.908;16.490;2023-08-01T00:12:20;1.83;;;1.60;;
12124;SDS011;6126;57.908;16.490;2023-08-01T00:14:46;3.75;;;1.88;;
12124;SDS011;6126;57.908;16.490;2023-08-01T00:17:12;1.75;;;1.45;;
12124;SDS011;6126;57.908;16.490;2023-08-01T00:19:38;3.17;;;1.50;;
12124;SDS011;6126;57.908;16.490;2023-08-01T00:22:05;2.17;;;1.52;;
12124;SDS011;6126;57.908;16.490;2023-08-01T00:24:31;2.28;;;1.30;;
12124;SDS011;6126;57.908;16.490;2023-08-01T00:26:57;1.83;;;1.60;;
12124;SDS011;6126;57.908;16.490;2023-08-01T00:29:23;2.75;;;1.58;;
12124;SDS011;6126;57.908;16.490;2023-08-01T00:31:48;1.70;;;1.30;;
12124;SDS011;6126;57.908;16.490;2023-08-01T00:34:14;3.00;;;1.90;;
12124;SDS011;6126;57.908;16.490;2023-08-01T00:36:40;2.38;;;1.70;;
12124;SDS011;6126;57.908;16.490;2023-08-01T00:39:06;3.88;;;1.75;;
12124;SDS011;6126;57.908;16.490;2023-08-01T00:41:32;3.78;;;1.95;;
12124;SDS011;6126;57.908;16.490;2023-08-01T00:43:58;2.92;;;1.52;;
12124;SDS011;6126;57.908;16.490;2023-08-01T00:46:24;1.52;;;1.30;;
12124;SDS011;6126;57.908;16.490;2023-08-01T00:48:50;2.17;;;1.70;;
12124;SDS011;6126;57.908;16.490;2023-08-01T00:51:16;2.67;;;1.65;;
12124;SDS011;6126;57.908;16.490;2023-08-01T00:53:43;2.35;;;1.70;;
12124;SDS011;6126;57.908;16.490;2023-08-01T00:56:11;3.20;;;1.63;;
12124;SDS011;6126;57.908;16.490;2023-08-01T00:58:37;2.15;;;1.70;;
12124;SDS011;6126;57.908;16.490;2023-08-01T01:01:03;2.35;;;1.75;;
12124;SDS011;6126;57.908;16.490;2023-08-01T01:03:29;6.22;;;1.52;;
12124;SDS011;6126;57.908;16.490;2023-08-01T01:05:57;2.65;;;1.85;;
12124;SDS011;6126;57.908;16.490;2023-08-01T01:08:44;3.33;;;1.50;;
12124;SDS011;6126;57.908;16.490;2023-08-01T01:11:10;1.92;;;1.70;;
12124;SDS011;6126;57.908;16.490;2023-08-01T01:13:36;1.77;;;1.67;;
12124;SDS011;6126;57.908;16.490;2023-08-01T01:16:02;1.83;;;1.60;;
12124;SDS011;6126;57.908;16.490;2023-08-01T01:18:28;1.65;;;1.50;;
12124;SDS011;6126;57.908;16.490;2023-08-01T01:20:54;3.00;;;1.48;;
12124;SDS011;6126;57.908;16.490;2023-08-01T01:23:20;1.65;;;1.30;;
12124;SDS011;6126;57.908;16.490;2023-08-01T01:25:48;2.85;;;1.65;;
12124;SDS011;6126;57.908;16.490;2023-08-01T01:28:16;3.05;;;1.50;;
12124;SDS011;6126;57.908;16.490;2023-08-01T01:30:44;1.75;;;1.65;;
12124;SDS011;6126;57.908;16.490;2023-08-01T01:33:12;3.03;;;1.65;;
12124;SDS011;6126;57.908;16.490;2023-08-01T01:35:40;2.08;;;1.65;;
12124;SDS011;6126;57.908;16.490;2023-08-01T01:38:06;5.13;;;1.85;;
12124;SDS011;6126;57.908;16.490;2023-08-01T01:40:32;2.45;;;1.70;;
12124;SDS011;6126;57.908;16.490;2023-08-01T01:43:01;2.33;;;1.30;;
12124;SDS011;6126;57.908;16.490;2023-08-01T01:45:27;2.08;;;1.73;;
12124;SDS011;6126;57.908;16.490;2023-08-01T01:47:53;1.52;;;1.42;;
12124;SDS011;6126;57.908;16.490;2023-08-01T01:50:19;2.45;;;1.50;;
12124;SDS011;6126;57.908;16.490;2023-08-01T01:52:45;3.25;;;1.50;;
12124;SDS011;6126;57.908;16.490;2023-08-01T01:55:11;2.00;;;1.80;;
12124;SDS011;6126;57.908;16.490;2023-08-01T01:57:37;1.90;;;1.50;;
12124;SDS011;6126;57.908;16.490;2023-08-01T02:00:04;2.55;;;1.65;;
12124;SDS011;6126;57.908;16.490;2023-08-01T02:02:31;1.77;;;1.50;;
12124;SDS011;6126;57.908;16.490;2023-08-01T02:04:56;5.47;;;1.80;;
12124;SDS011;6126;57.908;16.490;2023-08-01T02:07:22;1.70;;;1.60;;
12124;SDS011;6126;57.908;16.490;2023-08-01T02:09:48;3.50;;;1.90;;
12124;SDS011;6126;57.908;16.490;2023-08-01T02:12:14;2.25;;;2.05;;
12124;SDS011;6126;57.908;16.490;2023-08-01T02:14:40;1.60;;;1.40;;
12124;SDS011;6126;57.908;16.490;2023-08-01T02:17:06;2.95;;;1.90;;
12124;SDS011;6126;57.908;16.490;2023-08-01T02:19:33;2.38;;;1.83;;
12124;SDS011;6126;57.908;16.490;2023-08-01T02:21:59;2.03;;;1.63;;
12124;SDS011;6126;57.908;16.490;2023-08-01T02:24:25;2.85;;;1.70;;
12124;SDS011;6126;57.908;16.490;2023-08-01T02:26:50;2.05;;;1.70;;
12124;SDS011;6126;57.908;16.490;2023-08-01T02:29:16;2.30;;;2.10;;
12124;SDS011;6126;57.908;16.490;2023-08-01T02:31:42;1.70;;;1.55;;
12124;SDS011;6126;57.908;16.490;2023-08-01T02:34:08;2.60;;;1.67;;
12124;SDS011;6126;57.908;16.490;2023-08-01T02:36:34;3.25;;;1.65;;
12124;SDS011;6126;57.908;16.490;2023-08-01T02:39:00;1.77;;;1.67;;
12124;SDS011;6126;57.908;16.490;2023-08-01T02:41:26;2.13;;;1.60;;
12124;SDS011;6126;57.908;16.490;2023-08-01T02:43:52;2.40;;;1.70;;
12124;SDS011;6126;57.908;16.490;2023-08-01T02:46:17;3.47;;;2.00;;
12124;SDS011;6126;57.908;16.490;2023-08-01T02:48:43;4.07;;;1.88;;
12124;SDS011;6126;57.908;16.490;2023-08-01T02:51:09;3.60;;;1.90;;
12124;SDS011;6126;57.908;16.490;2023-08-01T02:53:35;2.50;;;2.00;;
12124;SDS011;6126;57.908;16.490;2023-08-01T02:56:02;3.28;;;1.92;;
12124;SDS011;6126;57.908;16.490;2023-08-01T02:58:29;4.95;;;2.03;;
12124;SDS011;6126;57.908;16.490;2023-08-01T03:00:55;2.08;;;1.65;;
12124;SDS011;6126;57.908;16.490;2023-08-01T03:03:21;3.33;;;1.90;;
12124;SDS011;6126;57.908;16.490;2023-08-01T03:05:47;2.85;;;2.17;;
12124;SDS011;6126;57.908;16.490;2023-08-01T03:08:13;4.78;;;2.35;;
12124;SDS011;6126;57.908;16.490;2023-08-01T03:10:39;3.55;;;1.60;;
12124;SDS011;6126;57.908;16.490;2023-08-01T03:13:05;2.75;;;2.15;;
12124;SDS011;6126;57.908;16.490;2023-08-01T03:15:31;1.80;;;1.70;;
12124;SDS011;6126;57.908;16.490;2023-08-01T03:17:57;2.92;;;1.95;;
12124;SDS011;6126;57.908;16.490;2023-08-01T03:20:23;2.45;;;2.25;;
12124;SDS011;6126;57.908;16.490;2023-08-01T03:22:49;2.72;;;2.10;;
12124;SDS011;6126;57.908;16.490;2023-08-01T03:25:15;2.53;;;2.33;;
12124;SDS011;6126;57.908;16.490;2023-08-01T03:27:41;2.38;;;2.03;;
12124;SDS011;6126;57.908;16.490;2023-08-01T03:30:07;2.13;;;1.92;;
12124;SDS011;6126;57.908;16.490;2023-08-01T03:32:34;3.38;;;2.13;;
12124;SDS011;6126;57.908;16.490;2023-08-01T03:35:04;2.47;;;2.03;;
12124;SDS011;6126;57.908;16.490;2023-08-01T03:37:30;2.42;;;2.22;;
12124;SDS011;6126;57.908;16.490;2023-08-01T03:39:56;2.10;;;1.90;;
12124;SDS011;6126;57.908;16.490;2023-08-01T03:42:22;2.28;;;1.95;;
12124;SDS011;6126;57.908;16.490;2023-08-01T03:44:48;2.80;;;2.25;;
12124;SDS011;6126;57.908;16.490;2023-08-01T03:47:14;2.50;;;2.30;;
12124;SDS011;6126;57.908;16.490;2023-08-01T03:49:40;2.13;;;1.80;;
12124;SDS011;6126;57.908;16.490;2023-08-01T03:52:05;3.33;;;2.20;;
12124;SDS011;6126;57.908;16.490;2023-08-01T03:54:32;2.88;;;2.03;;
12124;SDS011;6126;57.908;16.490;2023-08-01T03:56:58;2.25;;;2.05;;
12124;SDS011;6126;57.908;16.490;2023-08-01T03:59:24;1.88;;;1.77;;
12124;SDS011;6126;57.908;16.490;2023-08-01T04:01:51;2.22;;;2.08;;
12124;SDS011;6126;57.908;16.490;2023-08-01T04:04:17;3.53;;;2.17;;
12124;SDS011;6126;57.908;16.490;2023-08-01T04:06:43;2.33;;;2.13;;
12124;SDS011;6126;57.908;16.490;2023-08-01T04:09:08;2.67;;;2.42;;
12124;SDS011;6126;57.908;16.490;2023-08-01T04:11:34;2.08;;;1.85;;
12124;SDS011;6126;57.908;16.490;2023-08-01T04:14:00;2.47;;;2.10;;
12124;SDS011;6126;57.908;16.490;2023-08-01T04:16:26;2.30;;;2.10;;
12124;SDS011;6126;57.908;16.490;2023-08-01T04:18:52;3.00;;;2.00;;
12124;SDS011;6126;57.908;16.490;2023-08-01T04:21:18;3.08;;;2.20;;
12124;SDS011;6126;57.908;16.490;2023-08-01T04:23:44;3.20;;;2.35;;
12124;SDS011;6126;57.908;16.490;2023-08-01T04:26:09;3.20;;;2.40;;
12124;SDS011;6126;57.908;16.490;2023-08-01T04:28:35;2.28;;;2.08;;
12124;SDS011;6126;57.908;16.490;2023-08-01T04:31:01;2.42;;;2.22;;
12124;SDS011;6126;57.908;16.490;2023-08-01T04:33:27;3.85;;;2.25;;
12124;SDS011;6126;57.908;16.490;2023-08-01T04:35:53;2.42;;;2.22;;
12124;SDS011;6126;57.908;16.490;2023-08-01T04:38:19;2.35;;;2.15;;
12124;SDS011;6126;57.908;16.490;2023-08-01T04:40:45;2.03;;;1.83;;
12124;SDS011;6126;57.908;16.490;2023-08-01T04:43:11;2.47;;;2.28;;
12124;SDS011;6126;57.908;16.490;2023-08-01T04:45:38;2.30;;;2.05;;
12124;SDS011;6126;57.908;16.490;2023-08-01T04:48:04;2.28;;;2.08;;
12124;SDS011;6126;57.908;16.490;2023-08-01T04:50:30;2.00;;;1.90;;
12124;SDS011;6126;57.908;16.490;2023-08-01T04:52:56;4.60;;;1.98;;
12124;SDS011;6126;57.908;16.490;2023-08-01T04:55:22;2.75;;;2.40;;
12124;SDS011;6126;57.908;16.490;2023-08-01T04:57:47;2.45;;;2.25;;
12124;SDS011;6126;57.908;16.490;2023-08-01T05:00:13;2.20;;;2.00;;
12124;SDS011;6126;57.908;16.490;2023-08-01T05:02:40;2.47;;;2.03;;
12124;SDS011;6126;57.908;16.490;2023-08-01T05:05:06;2.83;;;2.22;;
12124;SDS011;6126;57.908;16.490;2023-08-01T05:07:32;4.50;;;2.17;;
12124;SDS011;6126;57.908;16.490;2023-08-01T05:09:58;2.20;;;2.00;;
12124;SDS011;6126;57.908;16.490;2023-08-01T05:12:24;2.50;;;1.73;;
12124;SDS011;6126;57.908;16.490;2023-08-01T05:14:50;2.63;;;2.10;;
12124;SDS011;6126;57.908;16.490;2023-08-01T05:17:16;3.67;;;2.22;;
12124;SDS011;6126;57.908;16.490;2023-08-01T05:19:42;4.05;;;1.95;;
12124;SDS011;6126;57.908;16.490;2023-08-01T05:22:07;1.77;;;1.67;;
12124;SDS011;6126;57.908;16.490;2023-08-01T05:24:33;2.65;;;2.20;;
12124;SDS011;6126;57.908;16.490;2023-08-01T05:26:59;2.20;;;1.98;;
12124;SDS011;6126;57.908;16.490;2023-08-01T05:29:25;2.17;;;1.83;;
12124;SDS011;6126;57.908;16.490;2023-08-01T05:31:51;2.33;;;1.90;;
12124;SDS011;6126;57.908;16.490;2023-08-01T05:34:17;2.40;;;1.92;;
12124;SDS011;6126;57.908;16.490;2023-08-01T05:36:43;2.60;;;2.10;;
12124;SDS011;6126;57.908;16.490;2023-08-01T05:39:08;2.10;;;1.95;;
12124;SDS011;6126;57.908;16.490;2023-08-01T05:41:34;2.78;;;2.08;;
12124;SDS011;6126;57.908;16.490;2023-08-01T05:44:01;2.22;;;1.80;;
12124;SDS011;6126;57.908;16.490;2023-08-01T05:46:29;1.90;;;1.73;;
12124;SDS011;6126;57.908;16.490;2023-08-01T05:48:55;2.33;;;1.92;;
12124;SDS011;6126;57.908;16.490;2023-08-01T05:51:20;2.58;;;1.90;;
12124;SDS011;6126;57.908;16.490;2023-08-01T05:53:46;1.70;;;1.50;;
12124;SDS011;6126;57.908;16.490;2023-08-01T05:56:12;2.55;;;1.90;;
12124;SDS011;6126;57.908;16.490;2023-08-01T05:58:38;2.65;;;1.85;;
12124;SDS011;6126;57.908;16.490;2023-08-01T06:01:05;2.10;;;1.90;;
12124;SDS011;6126;57.908;16.490;2023-08-01T06:03:31;2.20;;;1.67;;
12124;SDS011;6126;57.908;16.490;2023-08-01T06:05:57;1.80;;;1.70;;
12124;SDS011;6126;57.908;16.490;2023-08-01T06:08:22;2.33;;;1.55;;
12124;SDS011;6126;57.908;16.490;2023-08-01T06:10:48;3.58;;;1.92;;
12124;SDS011;6126;57.908;16.490;2023-08-01T06:13:14;3.50;;;1.85;;
12124;SDS011;6126;57.908;16.490;2023-08-01T06:15:40;3.10;;;1.60;;
12124;SDS011;6126;57.908;16.490;2023-08-01T06:18:06;1.73;;;1.63;;
12124;SDS011;6126;57.908;16.490;2023-08-01T06:20:32;2.40;;;1.92;;
12124;SDS011;6126;57.908;16.490;2023-08-01T06:22:59;2.13;;;1.77;;
12124;SDS011;6126;57.908;16.490;2023-08-01T06:25:25;2.70;;;1.80;;
12124;SDS011;6126;57.908;16.490;2023-08-01T06:27:51;2.10;;;1.60;;
12124;SDS011;6126;57.908;16.490;2023-08-01T06:30:16;2.92;;;1.60;;
12124;SDS011;6126;57.908;16.490;2023-08-01T06:32:42;2.65;;;1.92;;
12124;SDS011;6126;57.908;16.490;2023-08-01T06:35:08;1.80;;;1.70;;
12124;SDS011;6126;57.908;16.490;2023-08-01T06:37:34;1.95;;;1.83;;
12124;SDS011;6126;57.908;16.490;2023-08-01T06:40:00;2.83;;;1.90;;
12124;SDS011;6126;57.908;16.490;2023-08-01T06:42:27;1.90;;;1.63;;
12124;SDS011;6126;57.908;16.490;2023-08-01T06:44:53;1.90;;;1.75;;
12124;SDS011;6126;57.908;16.490;2023-08-01T06:47:19;1.88;;;1.77;;
12124;SDS011;6126;57.908;16.490;2023-08-01T06:49:45;2.70;;;2.50;;
12124;SDS011;6126;57.908;16.490;2023-08-01T06:52:11;2.35;;;1.90;;
12124;SDS011;6126;57.908;16.490;2023-08-01T06:54:37;2.45;;;1.80;;
12124;SDS011;6126;57.908;16.490;2023-08-01T06:57:03;2.85;;;1.90;;
12124;SDS011;6126;57.908;16.490;2023-08-01T06:59:29;2.25;;;1.90;;
12124;SDS011;6126;57.908;16.490;2023-08-01T07:01:55;2.05;;;1.90;;
12124;SDS011;6126;57.908;16.490;2023-08-01T07:04:21;1.70;;;1.60;;
12124;SDS011;6126;57.908;16.490;2023-08-01T07:06:48;1.95;;;1.60;;
12124;SDS011;6126;57.908;16.490;2023-08-01T07:09:14;1.67;;;1.45;;
12124;SDS011;6126;57.908;16.490;2023-08-01T07:11:40;2.35;;;1.92;;
12124;SDS011;6126;57.908;16.490;2023-08-01T07:14:06;3.97;;;1.70;;
12124;SDS011;6126;57.908;16.490;2023-08-01T07:16:32;3.05;;;2.10;;
12124;SDS011;6126;57.908;16.490;2023-08-01T07:18:59;3.63;;;1.52;;
12124;SDS011;6126;57.908;16.490;2023-08-01T07:21:26;2.85;;;1.70;;
12124;SDS011;6126;57.908;16.490;2023-08-01T07:23:52;3.25;;;1.88;;
12124;SDS011;6126;57.908;16.490;2023-08-01T07:26:18;2.83;;;1.88;;
12124;SDS011;6126;57.908;16.490;2023-08-01T07:28:44;2.08;;;1.80;;
12124;SDS011;6126;57.908;16.490;2023-08-01T07:31:09;1.98;;;1.52;;
12124;SDS011;6126;57.908;16.490;2023-08-01T07:33:35;1.80;;;1.70;;
12124;SDS011;6126;57.908;16.490;2023-08-01T07:36:02;1.90;;;1.70;;
12124;SDS011;6126;57.908;16.490;2023-08-01T07:38:28;2.63;;;1.75;;
12124;SDS011;6126;57.908;16.490;2023-08-01T07:40:56;2.05;;;1.80;;
12124;SDS011;6126;57.908;16.490;2023-08-01T07:43:22;3.63;;;2.15;;
12124;SDS011;6126;57.908;16.490;2023-08-01T07:45:48;1.85;;;1.75;;
12124;SDS011;6126;57.908;16.490;2023-08-01T07:48:15;1.60;;;1.50;;
12124;SDS011;6126;57.908;16.490;2023-08-01T07:50:42;1.85;;;1.58;;
12124;SDS011;6126;57.908;16.490;2023-08-01T07:53:07;2.20;;;2.00;;
12124;SDS011;6126;57.908;16.490;2023-08-01T07:55:34;2.13;;;1.92;;
12124;SDS011;6126;57.908;16.490;2023-08-01T07:58:00;2.60;;;2.38;;
12124;SDS011;6126;57.908;16.490;2023-08-01T08:00:26;3.90;;;2.40;;
12124;SDS011;6126;57.908;16.490;2023-08-01T08:02:52;2.50;;;2.30;;
12124;SDS011;6126;57.908;16.490;2023-08-01T08:05:19;3.00;;;2.22;;
12124;SDS011;6126;57.908;16.490;2023-08-01T08:07:45;1.90;;;1.80;;
12124;SDS011;6126;57.908;16.490;2023-08-01T08:10:11;2.10;;;1.90;;
12124;SDS011;6126;57.908;16.490;2023-08-01T08:12:37;2.42;;;2.22;;
12124;SDS011;6126;57.908;16.490;2023-08-01T08:15:03;1.98;;;1.80;;
12124;SDS011;6126;57.908;16.490;2023-08-01T08:17:29;2.67;;;2.03;;
12124;SDS011;6126;57.908;16.490;2023-08-01T08:19:55;4.72;;;2.30;;
12124;SDS011;6126;57.908;16.490;2023-08-01T08:22:21;2.13;;;1.92;;
12124;SDS011;6126;57.908;16.490;2023-08-01T08:24:47;2.10;;;1.88;;
12124;SDS011;6126;57.908;16.490;2023-08-01T08:27:13;1.83;;;1.73;;
12124;SDS011;6126;57.908;16.490;2023-08-01T08:29:39;3.50;;;1.70;;
12124;SDS011;6126;57.908;16.490;2023-08-01T08:32:05;1.73;;;1.63;;
12124;SDS011;6126;57.908;16.490;2023-08-01T08:34:32;2.40;;;1.70;;
12124;SDS011;6126;57.908;16.490;2023-08-01T08:36:58;2.40;;;1.60;;
12124;SDS011;6126;57.908;16.490;2023-08-01T08:39:24;3.45;;;1.92;;
12124;SDS011;6126;57.908;16.490;2023-08-01T08:41:51;1.85;;;1.38;;
12124;SDS011;6126;57.908;16.490;2023-08-01T08:44:19;2.47;;;2.00;;
12124;SDS011;6126;57.908;16.490;2023-08-01T08:46:47;1.92;;;1.67;;
12124;SDS011;6126;57.908;16.490;2023-08-01T08:49:19;2.33;;;1.90;;
12124;SDS011;6126;57.908;16.490;2023-08-01T08:51:47;3.35;;;1.77;;
12124;SDS011;6126;57.908;16.490;2023-08-01T08:54:15;3.00;;;1.92;;
12124;SDS011;6126;57.908;16.490;2023-08-01T08:56:42;2.85;;;1.55;;
12124;SDS011;6126;57.908;16.490;2023-08-01T08:59:08;3.85;;;1.75;;
12124;SDS011;6126;57.908;16.490;2023-08-01T09:01:36;1.75;;;1.65;;
12124;SDS011;6126;57.908;16.490;2023-08-01T09:04:03;2.58;;;1.70;;
12124;SDS011;6126;57.908;16.490;2023-08-01T09:06:30;1.83;;;1.52;;
12124;SDS011;6126;57.908;16.490;2023-08-01T09:09:16;2.53;;;1.90;;
12124;SDS011;6126;57.908;16.490;2023-08-01T09:14:14;3.20;;;1.95;;
12124;SDS011;6126;57.908;16.490;2023-08-01T09:16:42;2.45;;;2.10;;
12124;SDS011;6126;57.908;16.490;2023-08-01T09:19:09;1.98;;;1.77;;
12124;SDS011;6126;57.908;16.490;2023-08-01T09:21:38;2.10;;;1.73;;
12124;SDS011;6126;57.908;16.490;2023-08-01T09:24:08;1.92;;;1.83;;
12124;SDS011;6126;57.908;16.490;2023-08-01T09:26:36;4.25;;;2.10;;
12124;SDS011;6126;57.908;16.490;2023-08-01T09:29:02;2.25;;;1.98;;
12124;SDS011;6126;57.908;16.490;2023-08-01T09:31:29;2.58;;;1.65;;
12124;SDS011;6126;57.908;16.490;2023-08-01T09:33:58;2.40;;;1.75;;
12124;SDS011;6126;57.908;16.490;2023-08-01T09:36:25;2.08;;;1.67;;
12124;SDS011;6126;57.908;16.490;2023-08-01T09:38:51;1.83;;;1.52;;
12124;SDS011;6126;57.908;16.490;2023-08-01T09:41:25;1.52;;;1.38;;
12124;SDS011;6126;57.908;16.490;2023-08-01T09:43:51;2.17;;;1.95;;
12124;SDS011;6126;57.908;16.490;2023-08-01T09:46:17;1.88;;;1.58;;
12124;SDS011;6126;57.908;16.490;2023-08-01T09:48:43;2.05;;;1.20;;
12124;SDS011;6126;57.908;16.490;2023-08-01T09:51:09;1.48;;;1.10;;
12124;SDS011;6126;57.908;16.490;2023-08-01T09:56:32;1.70;;;1.40;;
12124;SDS011;6126;57.908;16.490;2023-08-01T09:58:59;2.25;;;1.20;;
12124;SDS011;6126;57.908;16.490;2023-08-01T10:01:26;1.92;;;1.15;;
12124;SDS011;6126;57.908;16.490;2023-08-01T10:03:53;1.10;;;1.00;;
12124;SDS011;6126;57.908;16.490;2023-08-01T10:06:22;1.40;;;1.15;;
12124;SDS011;6126;57.908;16.490;2023-08-01T10:08:57;1.67;;;0.90;;
12124;SDS011;6126;57.908;16.490;2023-08-01T10:11:24;1.60;;;1.23;;
12124;SDS011;6126;57.908;16.490;2023-08-01T10:13:55;1.00;;;0.90;;
12124;SDS011;6126;57.908;16.490;2023-08-01T10:16:21;2.05;;;1.20;;
12124;SDS011;6126;57.908;16.490;2023-08-01T10:18:49;1.85;;;0.98;;
12124;SDS011;6126;57.908;16.490;2023-08-01T10:21:16;3.03;;;1.30;;
12124;SDS011;6126;57.908;16.490;2023-08-01T10:23:45;1.20;;;1.10;;
12124;SDS011;6126;57.908;16.490;2023-08-01T10:26:14;1.63;;;1.23;;
12124;SDS011;6126;57.908;16.490;2023-08-01T10:28:49;1.70;;;1.10;;
12124;SDS011;6126;57.908;16.490;2023-08-01T10:31:17;1.65;;;0.93;;
12124;SDS011;6126;57.908;16.490;2023-08-01T10:33:47;2.92;;;1.33;;
12124;SDS011;6126;57.908;16.490;2023-08-01T10:36:21;1.40;;;1.00;;
12124;SDS011;6126;57.908;16.490;2023-08-01T10:41:26;1.77;;;1.45;;
12124;SDS011;6126;57.908;16.490;2023-08-01T10:44:09;1.33;;;1.10;;
12124;SDS011;6126;57.908;16.490;2023-08-01T10:49:19;1.83;;;1.42;;
12124;SDS011;6126;57.908;16.490;2023-08-01T10:51:57;1.20;;;1.10;;
12124;SDS011;6126;57.908;16.490;2023-08-01T10:54:23;1.10;;;1.00;;
12124;SDS011;6126;57.908;16.490;2023-08-01T10:56:52;1.17;;;1.05;;
12124;SDS011;6126;57.908;16.490;2023-08-01T10:59:21;2.53;;;1.13;;
12124;SDS011;6126;57.908;16.490;2023-08-01T11:01:48;1.70;;;1.10;;
12124;SDS011;6126;57.908;16.490;2023-08-01T11:04:20;0.85;;;0.85;;
12124;SDS011;6126;57.908;16.490;2023-08-01T11:06:51;1.50;;;1.25;;
12124;SDS011;6126;57.908;16.490;2023-08-01T11:09:24;1.65;;;0.90;;
12124;SDS011;6126;57.908;16.490;2023-08-01T11:11:53;1.30;;;1.20;;
12124;SDS011;6126;57.908;16.490;2023-08-01T11:14:22;1.20;;;1.10;;
12124;SDS011;6126;57.908;16.490;2023-08-01T11:16:53;1.58;;;0.93;;
12124;SDS011;6126;57.908;16.490;2023-08-01T11:19:22;1.05;;;0.90;;
12124;SDS011;6126;57.908;16.490;2023-08-01T11:21:53;1.30;;;1.10;;
12124;SDS011;6126;57.908;16.490;2023-08-01T11:24:23;1.40;;;1.30;;
12124;SDS011;6126;57.908;16.490;2023-08-01T11:26:52;1.63;;;0.85;;
12124;SDS011;6126;57.908;16.490;2023-08-01T11:29:19;1.48;;;0.93;;
12124;SDS011;6126;57.908;16.490;2023-08-01T11:31:52;1.73;;;1.00;;
12124;SDS011;6126;57.908;16.490;2023-08-01T11:34:20;1.20;;;1.00;;
12124;SDS011;6126;57.908;16.490;2023-08-01T11:36:47;1.08;;;0.98;;
12124;SDS011;6126;57.908;16.490;2023-08-01T11:39:14;1.65;;;1.15;;
12124;SDS011;6126;57.908;16.490;2023-08-01T11:41:41;1.33;;;0.88;;
12124;SDS011;6126;57.908;16.490;2023-08-01T11:44:08;1.08;;;0.80;;
12124;SDS011;6126;57.908;16.490;2023-08-01T11:46:36;0.93;;;0.70;;
12124;SDS011;6126;57.908;16.490;2023-08-01T11:49:04;1.00;;;0.88;;
12124;SDS011;6126;57.908;16.490;2023-08-01T11:51:53;0.98;;;0.80;;
12124;SDS011;6126;57.908;16.490;2023-08-01T11:54:18;1.80;;;1.38;;
12124;SDS011;6126;57.908;16.490;2023-08-01T11:56:44;0.73;;;0.73;;
12124;SDS011;6126;57.908;16.490;2023-08-01T11:59:14;1.33;;;0.80;;
12124;SDS011;6126;57.908;16.490;2023-08-01T12:01:42;1.50;;;0.80;;
12124;SDS011;6126;57.908;16.490;2023-08-01T12:04:11;1.08;;;0.98;;
12124;SDS011;6126;57.908;16.490;2023-08-01T12:06:48;2.78;;;0.98;;
12124;SDS011;6126;57.908;16.490;2023-08-01T12:09:14;1.13;;;0.90;;
12124;SDS011;6126;57.908;16.490;2023-08-01T12:11:40;0.63;;;0.60;;
12124;SDS011;6126;57.908;16.490;2023-08-01T12:14:13;1.02;;;0.85;;
12124;SDS011;6126;57.908;16.490;2023-08-01T12:16:41;0.70;;;0.70;;
12124;SDS011;6126;57.908;16.490;2023-08-01T12:19:10;0.52;;;0.52;;
12124;SDS011;6126;57.908;16.490;2023-08-01T12:21:43;1.30;;;0.60;;
12124;SDS011;6126;57.908;16.490;2023-08-01T12:24:10;0.50;;;0.50;;
12124;SDS011;6126;57.908;16.490;2023-08-01T12:26:36;0.70;;;0.68;;
12124;SDS011;6126;57.908;16.490;2023-08-01T12:29:02;0.75;;;0.70;;
12124;SDS011;6126;57.908;16.490;2023-08-01T12:31:28;0.90;;;0.70;;
12124;SDS011;6126;57.908;16.490;2023-08-01T12:33:54;0.50;;;0.50;;
12124;SDS011;6126;57.908;16.490;2023-08-01T12:36:20;0.85;;;0.77;;
12124;SDS011;6126;57.908;16.490;2023-08-01T12:38:46;0.63;;;0.63;;
12124;SDS011;6126;57.908;16.490;2023-08-01T12:41:12;0.50;;;0.50;;
12124;SDS011;6126;57.908;16.490;2023-08-01T12:43:38;1.00;;;0.70;;
12124;SDS011;6126;57.908;16.490;2023-08-01T12:46:04;0.60;;;0.60;;
12124;SDS011;6126;57.908;16.490;2023-08-01T12:48:30;1.13;;;0.68;;
12124;SDS011;6126;57.908;16.490;2023-08-01T12:50:56;0.57;;;0.57;;
12124;SDS011;6126;57.908;16.490;2023-08-01T12:53:22;0.75;;;0.68;;
12124;SDS011;6126;57.908;16.490;2023-08-01T12:55:49;1.25;;;0.90;;
12124;SDS011;6126;57.908;16.490;2023-08-01T12:58:16;1.73;;;0.60;;
12124;SDS011;6126;57.908;16.490;2023-08-01T13:00:43;2.30;;;0.70;;
12124;SDS011;6126;57.908;16.490;2023-08-01T13:03:10;0.70;;;0.63;;
12124;SDS011;6126;57.908;16.490;2023-08-01T13:05:37;0.60;;;0.60;;
12124;SDS011;6126;57.908;16.490;2023-08-01T13:08:05;0.77;;;0.75;;
12124;SDS011;6126;57.908;16.490;2023-08-01T13:10:32;0.70;;;0.70;;
12124;SDS011;6126;57.908;16.490;2023-08-01T13:13:00;1.35;;;0.80;;
12124;SDS011;6126;57.908;16.490;2023-08-01T13:15:26;0.90;;;0.70;;
12124;SDS011;6126;57.908;16.490;2023-08-01T13:17:55;0.70;;;0.70;;
12124;SDS011;6126;57.908;16.490;2023-08-01T13:20:21;0.93;;;0.70;;
12124;SDS011;6126;57.908;16.490;2023-08-01T13:22:51;1.05;;;0.88;;
12124;SDS011;6126;57.908;16.490;2023-08-01T13:25:17;1.23;;;0.70;;
12124;SDS011;6126;57.908;16.490;2023-08-01T13:27:44;0.95;;;0.68;;
12124;SDS011;6126;57.908;16.490;2023-08-01T13:30:10;0.70;;;0.63;;
12124;SDS011;6126;57.908;16.490;2023-08-01T13:32:39;0.80;;;0.50;;
12124;SDS011;6126;57.908;16.490;2023-08-01T13:35:06;0.60;;;0.60;;
12124;SDS011;6126;57.908;16.490;2023-08-01T13:37:32;0.73;;;0.70;;
12124;SDS011;6126;57.908;16.490;2023-08-01T13:39:58;0.90;;;0.70;;
12124;SDS011;6126;57.908;16.490;2023-08-01T13:42:25;0.73;;;0.60;;
12124;SDS011;6126;57.908;16.490;2023-08-01T13:44:53;1.30;;;0.52;;
12124;SDS011;6126;57.908;16.490;2023-08-01T13:47:19;0.90;;;0.52;;
12124;SDS011;6126;57.908;16.490;2023-08-01T13:49:45;2.20;;;0.70;;
12124;SDS011;6126;57.908;16.490;2023-08-01T13:52:11;1.27;;;0.90;;
12124;SDS011;6126;57.908;16.490;2023-08-01T13:54:37;0.80;;;0.80;;
12124;SDS011;6126;57.908;16.490;2023-08-01T13:57:03;0.85;;;0.68;;
12124;SDS011;6126;57.908;16.490;2023-08-01T13:59:29;1.02;;;0.90;;
12124;SDS011;6126;57.908;16.490;2023-08-01T14:01:56;0.85;;;0.70;;
12124;SDS011;6126;57.908;16.490;2023-08-01T14:04:22;0.88;;;0.80;;
12124;SDS011;6126;57.908;16.490;2023-08-01T14:06:48;1.02;;;0.73;;
12124;SDS011;6126;57.908;16.490;2023-08-01T14:09:14;0.73;;;0.73;;
12124;SDS011;6126;57.908;16.490;2023-08-01T14:11:40;1.15;;;0.70;;
12124;SDS011;6126;57.908;16.490;2023-08-01T14:14:06;1.42;;;0.90;;
12124;SDS011;6126;57.908;16.490;2023-08-01T14:16:31;0.95;;;0.85;;
12124;SDS011;6126;57.908;16.490;2023-08-01T14:18:58;1.77;;;0.88;;
12124;SDS011;6126;57.908;16.490;2023-08-01T14:21:24;0.80;;;0.70;;
12124;SDS011;6126;57.908;16.490;2023-08-01T14:23:50;2.25;;;1.00;;
12124;SDS011;6126;57.908;16.490;2023-08-01T14:26:16;0.70;;;0.70;;
12124;SDS011;6126;57.908;16.490;2023-08-01T14:28:42;2.08;;;0.85;;
12124;SDS011;6126;57.908;16.490;2023-08-01T14:31:08;1.05;;;0.80;;
12124;SDS011;6126;57.908;16.490;2023-08-01T14:33:34;0.77;;;0.77;;
12124;SDS011;6126;57.908;16.490;2023-08-01T14:36:00;1.77;;;0.98;;
12124;SDS011;6126;57.908;16.490;2023-08-01T14:38:26;1.48;;;1.02;;
12124;SDS011;6126;57.908;16.490;2023-08-01T14:40:53;1.15;;;0.90;;
12124;SDS011;6126;57.908;16.490;2023-08-01T14:43:19;2.92;;;1.10;;
12124;SDS011;6126;57.908;16.490;2023-08-01T14:45:45;0.63;;;0.63;;
12124;SDS011;6126;57.908;16.490;2023-08-01T14:48:12;2.15;;;0.90;;
12124;SDS011;6126;57.908;16.490;2023-08-01T14:50:38;2.90;;;1.05;;
12124;SDS011;6126;57.908;16.490;2023-08-01T14:53:04;2.33;;;0.93;;
12124;SDS011;6126;57.908;16.490;2023-08-01T14:55:31;1.75;;;0.70;;